createdAt,value
2022-11-17T00:00:43.701Z,6.18
2022-11-17T00:03:16.855Z,6.28
2022-11-17T00:05:45.077Z,5.25
2022-11-17T00:08:12.499Z,5.30
2022-11-17T00:10:40.190Z,4.40
2022-11-17T00:13:27.324Z,4.25
2022-11-17T00:15:54.958Z,6.80
2022-11-17T00:18:41.235Z,9.48
2022-11-17T00:21:23.991Z,5.05
2022-11-17T00:23:51.489Z,3.60
2022-11-17T00:26:21.971Z,5.53
2022-11-17T00:29:07.506Z,5.85
2022-11-17T00:31:53.749Z,8.27
2022-11-17T00:34:23.135Z,8.27
2022-11-17T00:36:53.425Z,5.90
2022-11-17T00:39:23.464Z,5.80
2022-11-17T00:41:51.329Z,11.23
2022-11-17T00:44:18.494Z,8.20
2022-11-17T00:46:46.103Z,8.18
2022-11-17T00:49:14.736Z,5.75
2022-11-17T00:51:42.685Z,4.07
2022-11-17T00:54:13.180Z,5.20
2022-11-17T00:56:41.295Z,6.05
2022-11-17T00:59:08.520Z,4.25
2022-11-17T01:01:37.022Z,8.30
2022-11-17T01:04:04.913Z,6.10
2022-11-17T01:06:41.053Z,6.85
2022-11-17T01:09:22.658Z,7.03
2022-11-17T01:11:52.026Z,5.15
2022-11-17T01:14:23.568Z,4.82
2022-11-17T01:16:51.849Z,3.95
2022-11-17T01:19:20.093Z,10.02
2022-11-17T01:21:47.963Z,6.20
2022-11-17T01:24:16.724Z,8.27
2022-11-17T01:26:46.459Z,5.07
2022-11-17T01:29:17.374Z,4.50
2022-11-17T01:31:49.567Z,7.10
2022-11-17T01:34:17.015Z,5.70
2022-11-17T01:37:03.562Z,5.93
2022-11-17T01:39:31.778Z,4.13
2022-11-17T01:42:04.367Z,3.45
2022-11-17T01:44:44.770Z,4.80
2022-11-17T01:47:30.047Z,4.43
2022-11-17T01:50:17.908Z,5.88
2022-11-17T01:52:48.923Z,5.57
2022-11-17T01:55:18.728Z,7.88
2022-11-17T01:57:51.414Z,5.90
2022-11-17T02:00:18.967Z,5.25
2022-11-17T02:02:47.772Z,5.68
2022-11-17T02:05:27.083Z,4.55
2022-11-17T02:07:58.292Z,6.40
2022-11-17T02:10:25.799Z,9.50
2022-11-17T02:12:54.667Z,9.60
2022-11-17T02:15:22.864Z,12.02
2022-11-17T02:17:51.522Z,6.55
2022-11-17T02:20:24.023Z,6.53
2022-11-17T02:23:14.578Z,4.55
2022-11-17T02:25:53.935Z,4.18
2022-11-17T02:28:29.138Z,3.60
2022-11-17T02:31:03.873Z,3.35
2022-11-17T02:33:47.722Z,3.30
2022-11-17T02:36:21.782Z,2.75
2022-11-17T02:38:59.781Z,2.65
2022-11-17T02:41:36.395Z,3.40
2022-11-17T02:44:06.628Z,2.88
2022-11-17T02:46:48.826Z,2.70
2022-11-17T02:49:18.851Z,2.13
2022-11-17T02:51:50.348Z,2.38
2022-11-17T02:54:19.807Z,2.22
2022-11-17T02:56:46.941Z,2.67
2022-11-17T02:59:17.555Z,3.28
2022-11-17T03:02:03.704Z,6.28
2022-11-17T03:07:42.891Z,3.58
2022-11-17T03:10:38.187Z,3.97
2022-11-17T03:13:21.123Z,4.60
2022-11-17T03:16:05.093Z,4.35
2022-11-17T03:18:48.951Z,4.13
2022-11-17T03:21:35.041Z,3.70
2022-11-17T03:24:09.685Z,3.35
2022-11-17T03:26:43.236Z,5.05
2022-11-17T03:29:15.196Z,3.80
2022-11-17T03:31:45.665Z,6.47
2022-11-17T03:34:17.007Z,6.50
2022-11-17T03:36:51.216Z,6.63
2022-11-17T03:39:26.670Z,5.55
2022-11-17T03:41:59.775Z,7.15
2022-11-17T03:44:29.630Z,7.07
2022-11-17T03:46:59.968Z,6.28
2022-11-17T03:49:38.815Z,8.93
2022-11-17T03:52:07.132Z,8.10
2022-11-17T03:54:36.794Z,8.70
2022-11-17T03:57:20.995Z,6.13
2022-11-17T03:59:54.856Z,7.88
2022-11-17T04:02:24.542Z,10.00
2022-11-17T04:05:06.986Z,6.35
2022-11-17T04:07:44.577Z,5.45
2022-11-17T04:10:17.759Z,3.55
2022-11-17T04:13:04.763Z,3.78
2022-11-17T04:15:50.488Z,2.30
2022-11-17T04:18:19.451Z,4.97
2022-11-17T04:20:50.561Z,3.53
2022-11-17T04:23:18.200Z,3.67
2022-11-17T04:26:12.776Z,5.25
2022-11-17T04:28:44.133Z,3.58
2022-11-17T04:31:16.988Z,3.67
2022-11-17T04:33:45.909Z,4.15
2022-11-17T04:36:15.385Z,2.65
2022-11-17T04:38:44.790Z,4.00
2022-11-17T04:41:32.560Z,3.67
2022-11-17T04:44:01.506Z,4.10
2022-11-17T04:46:31.334Z,4.32
2022-11-17T04:49:00.191Z,6.25
2022-11-17T04:51:28.242Z,7.57
2022-11-17T04:53:56.521Z,5.60
2022-11-17T04:56:24.373Z,3.53
2022-11-17T04:58:52.477Z,6.03
2022-11-17T05:01:21.080Z,4.00
2022-11-17T05:03:51.509Z,3.72
2022-11-17T05:06:44.937Z,3.72
2022-11-17T05:09:16.631Z,6.03
2022-11-17T05:12:02.866Z,5.25
2022-11-17T05:14:30.915Z,5.82
2022-11-17T05:17:10.114Z,2.80
2022-11-17T05:19:46.392Z,4.78
2022-11-17T05:22:37.833Z,4.97
2022-11-17T05:25:06.259Z,1.83
2022-11-17T05:27:34.676Z,1.45
2022-11-17T05:30:04.289Z,1.40
2022-11-17T05:32:31.636Z,1.15
2022-11-17T05:34:59.337Z,2.13
2022-11-17T05:37:26.608Z,2.03
2022-11-17T05:39:54.233Z,35.30
2022-11-17T05:42:21.667Z,14.80
2022-11-17T05:44:49.288Z,6.20
2022-11-17T05:47:16.473Z,2.83
2022-11-17T05:49:44.096Z,2.47
2022-11-17T05:52:11.405Z,3.58
2022-11-17T05:54:38.963Z,3.47
2022-11-17T05:57:13.814Z,4.00
2022-11-17T05:59:49.046Z,2.33
2022-11-17T06:02:25.573Z,1.90
2022-11-17T06:04:53.252Z,2.30
2022-11-17T06:07:20.993Z,3.70
2022-11-17T06:09:48.361Z,2.42
2022-11-17T06:12:15.836Z,2.20
2022-11-17T06:14:43.407Z,5.07
2022-11-17T06:17:27.266Z,9.77
2022-11-17T06:20:08.531Z,6.53
2022-11-17T06:22:36.601Z,6.47
2022-11-17T06:25:05.722Z,2.58
2022-11-17T06:27:33.926Z,1.92
2022-11-17T06:30:03.822Z,2.97
2022-11-17T06:32:35.047Z,4.53
2022-11-17T06:35:04.533Z,6.05
2022-11-17T06:37:31.976Z,4.05
2022-11-17T06:39:59.175Z,4.18
2022-11-17T06:42:45.365Z,3.72
2022-11-17T06:45:12.892Z,4.50
2022-11-17T06:47:40.453Z,4.18
2022-11-17T06:50:08.269Z,4.40
2022-11-17T06:52:35.740Z,4.65
2022-11-17T06:55:03.012Z,3.50
2022-11-17T06:57:30.583Z,4.07
2022-11-17T06:59:57.787Z,2.92
2022-11-17T07:02:25.217Z,3.80
2022-11-17T07:04:52.384Z,7.15
2022-11-17T07:07:19.858Z,8.15
2022-11-17T07:09:47.143Z,17.55
2022-11-17T07:12:14.622Z,20.02
2022-11-17T07:14:42.149Z,11.85
2022-11-17T07:17:09.611Z,12.13
2022-11-17T07:19:36.796Z,6.22
2022-11-17T07:22:04.264Z,11.52
2022-11-17T07:24:31.417Z,5.78
2022-11-17T07:26:58.861Z,4.90
2022-11-17T07:29:26.087Z,3.72
2022-11-17T07:31:53.543Z,3.55
2022-11-17T07:34:20.726Z,4.40
2022-11-17T07:36:48.192Z,5.20
2022-11-17T07:39:20.068Z,3.88
2022-11-17T07:41:49.181Z,3.50
2022-11-17T07:44:16.327Z,2.30
2022-11-17T07:46:43.849Z,2.15
2022-11-17T07:49:11.019Z,2.88
2022-11-17T07:51:38.502Z,3.45
2022-11-17T07:54:05.837Z,4.22
2022-11-17T07:56:34.510Z,3.40
2022-11-17T07:59:01.671Z,2.80
2022-11-17T08:01:29.862Z,2.17
2022-11-17T08:03:57.955Z,2.78
2022-11-17T08:06:25.580Z,2.40
2022-11-17T08:08:53.748Z,3.05
2022-11-17T08:11:21.597Z,3.45
2022-11-17T08:13:50.370Z,2.78
2022-11-17T08:16:18.117Z,4.03
2022-11-17T08:18:51.820Z,6.03
2022-11-17T08:21:20.128Z,7.30
2022-11-17T08:23:53.311Z,5.70
2022-11-17T08:26:21.932Z,9.18
2022-11-17T08:28:52.264Z,4.60
2022-11-17T08:31:24.704Z,5.90
2022-11-17T08:33:51.880Z,5.10
2022-11-17T08:36:19.350Z,5.95
2022-11-17T08:38:46.513Z,3.28
2022-11-17T08:41:14.013Z,11.35
2022-11-17T08:43:41.292Z,16.90
2022-11-17T08:46:12.810Z,12.63
2022-11-17T08:48:40.455Z,2.75
2022-11-17T08:51:09.736Z,2.00
2022-11-17T08:53:36.936Z,2.17
2022-11-17T08:56:12.412Z,4.07
2022-11-17T08:58:44.813Z,1.83
2022-11-17T09:01:16.059Z,3.50
2022-11-17T09:03:45.275Z,2.33
2022-11-17T09:06:15.276Z,2.80
2022-11-17T09:08:55.985Z,2.80
2022-11-17T09:11:24.145Z,1.63
2022-11-17T09:13:51.336Z,1.60
2022-11-17T09:16:19.025Z,2.50
2022-11-17T09:18:46.239Z,2.70
2022-11-17T09:21:16.151Z,2.55
2022-11-17T09:23:43.450Z,1.85
2022-11-17T09:26:13.636Z,6.00
2022-11-17T09:28:40.985Z,6.60
2022-11-17T09:31:14.356Z,9.93
2022-11-17T09:33:43.061Z,6.20
2022-11-17T09:36:12.585Z,5.18
2022-11-17T09:38:40.804Z,3.17
2022-11-17T09:41:26.435Z,4.53
2022-11-17T09:44:23.699Z,2.90
2022-11-17T09:47:28.032Z,3.25
2022-11-17T09:50:16.027Z,1.90
2022-11-17T09:53:02.870Z,2.78
2022-11-17T09:58:23.876Z,4.43
2022-11-17T10:00:53.354Z,4.25
2022-11-17T10:03:26.936Z,4.18
2022-11-17T10:05:55.532Z,2.88
2022-11-17T10:08:41.212Z,3.00
2022-11-17T10:11:31.826Z,2.50
2022-11-17T10:14:02.995Z,3.72
2022-11-17T10:16:31.625Z,3.20
2022-11-17T10:19:01.459Z,3.50
2022-11-17T10:21:31.126Z,5.50
2022-11-17T10:23:59.876Z,6.68
2022-11-17T10:26:28.228Z,4.20
2022-11-17T10:29:09.038Z,4.85
2022-11-17T10:31:42.723Z,4.05
2022-11-17T10:34:41.342Z,2.78
2022-11-17T10:37:15.523Z,11.93
2022-11-17T10:39:43.611Z,3.92
2022-11-17T10:42:28.060Z,2.13
2022-11-17T10:45:01.671Z,2.78
2022-11-17T10:47:37.819Z,3.53
2022-11-17T10:50:27.872Z,2.30
2022-11-17T10:53:16.076Z,4.72
2022-11-17T10:55:44.648Z,2.33
2022-11-17T10:58:21.247Z,3.30
2022-11-17T11:00:57.785Z,3.63
2022-11-17T11:03:29.654Z,3.47
2022-11-17T11:06:20.182Z,5.65
2022-11-17T11:09:11.848Z,3.25
2022-11-17T11:11:44.833Z,3.05
2022-11-17T11:14:15.942Z,2.55
2022-11-17T11:16:48.422Z,4.78
2022-11-17T11:19:18.269Z,3.47
2022-11-17T11:21:48.524Z,6.22
2022-11-17T11:24:29.518Z,2.38
2022-11-17T11:27:31.001Z,4.68
2022-11-17T11:30:06.317Z,2.50
2022-11-17T11:35:50.408Z,3.42
2022-11-17T11:38:37.039Z,2.88
2022-11-17T11:41:19.488Z,1.90
2022-11-17T11:43:55.932Z,3.88
2022-11-17T11:49:22.611Z,2.85
2022-11-17T11:51:51.652Z,2.65
2022-11-17T11:54:50.536Z,1.88
2022-11-17T11:57:24.087Z,7.28
2022-11-17T12:00:15.172Z,3.08
2022-11-17T12:02:53.184Z,4.05
2022-11-17T12:05:38.234Z,1.63
2022-11-17T12:08:15.826Z,3.90
2022-11-17T12:11:22.787Z,5.32
2022-11-17T12:13:54.121Z,1.38
2022-11-17T12:16:33.865Z,10.93
2022-11-17T12:19:01.381Z,23.13
2022-11-17T12:21:30.269Z,10.77
2022-11-17T12:24:06.378Z,5.38
2022-11-17T12:26:35.181Z,5.00
2022-11-17T12:29:19.786Z,5.35
2022-11-17T12:31:55.112Z,2.78
2022-11-17T12:34:22.820Z,2.50
2022-11-17T12:37:15.198Z,2.67
2022-11-17T12:39:57.986Z,7.25
2022-11-17T12:42:27.471Z,4.30
2022-11-17T12:45:00.550Z,5.85
2022-11-17T12:47:33.349Z,7.60
2022-11-17T12:50:21.893Z,5.40
2022-11-17T12:53:17.424Z,3.78
2022-11-17T12:56:02.291Z,8.18
2022-11-17T12:58:57.307Z,4.63
2022-11-17T13:01:42.859Z,4.97
2022-11-17T13:04:14.839Z,4.60
2022-11-17T13:07:16.507Z,5.13
2022-11-17T13:09:44.048Z,6.32
2022-11-17T13:12:11.332Z,5.68
2022-11-17T13:14:57.016Z,6.28
2022-11-17T13:17:43.546Z,5.70
2022-11-17T13:20:27.634Z,6.88
2022-11-17T13:23:18.557Z,4.72
2022-11-17T13:25:46.241Z,5.55
2022-11-17T13:28:34.957Z,4.75
2022-11-17T13:31:02.842Z,9.00
2022-11-17T13:33:32.394Z,9.65
2022-11-17T13:36:10.579Z,11.23
2022-11-17T13:38:48.432Z,9.18
2022-11-17T13:41:18.626Z,11.23
2022-11-17T13:43:47.376Z,7.70
2022-11-17T13:46:15.271Z,9.27
2022-11-17T13:48:48.293Z,7.80
2022-11-17T13:51:25.106Z,5.95
2022-11-17T13:53:59.457Z,8.25
2022-11-17T13:56:40.468Z,7.88
2022-11-17T13:59:40.267Z,6.65
2022-11-17T14:02:27.088Z,12.25
2022-11-17T14:07:45.814Z,10.90
2022-11-17T14:10:21.831Z,18.52
2022-11-17T14:13:20.799Z,13.38
2022-11-17T14:15:54.306Z,11.85
2022-11-17T14:18:37.035Z,12.75
2022-11-17T14:21:10.637Z,11.10
2022-11-17T14:23:38.618Z,8.73
2022-11-17T14:26:06.681Z,14.35
2022-11-17T14:28:34.447Z,19.20
2022-11-17T14:31:01.742Z,12.82
2022-11-17T14:33:29.371Z,15.45
2022-11-17T14:35:59.960Z,12.40
2022-11-17T14:38:27.833Z,11.55
2022-11-17T14:40:55.323Z,11.93
2022-11-17T14:43:23.376Z,15.10
2022-11-17T14:45:50.960Z,11.57
2022-11-17T14:48:19.585Z,9.27
2022-11-17T14:50:47.963Z,8.88
2022-11-17T14:53:15.726Z,6.85
2022-11-17T14:55:42.991Z,13.88
2022-11-17T14:58:10.756Z,14.77
2022-11-17T15:00:38.166Z,15.98
2022-11-17T15:03:06.014Z,15.30
2022-11-17T15:05:33.458Z,16.90
2022-11-17T15:08:01.437Z,24.05
2022-11-17T15:10:28.827Z,30.10
2022-11-17T15:12:56.408Z,29.15
2022-11-17T15:15:23.720Z,21.88
2022-11-17T15:17:51.500Z,22.73
2022-11-17T15:20:18.960Z,30.20
2022-11-17T15:22:46.708Z,31.17
2022-11-17T15:25:14.040Z,28.95
2022-11-17T15:27:41.651Z,32.40
2022-11-17T15:30:09.191Z,25.23
2022-11-17T15:32:37.397Z,18.08
2022-11-17T15:35:04.969Z,11.60
2022-11-17T15:37:32.662Z,16.17
2022-11-17T15:39:59.963Z,24.70
2022-11-17T15:42:27.686Z,24.60
2022-11-17T15:44:55.147Z,21.92
2022-11-17T15:47:22.958Z,23.95
2022-11-17T15:49:50.241Z,26.20
2022-11-17T15:52:30.064Z,29.23
2022-11-17T15:55:05.627Z,25.23
2022-11-17T15:57:35.953Z,26.70
2022-11-17T16:00:04.593Z,29.50
2022-11-17T16:02:32.246Z,31.27
2022-11-17T16:04:59.576Z,20.48
2022-11-17T16:07:27.211Z,19.95
2022-11-17T16:09:54.620Z,19.55
2022-11-17T16:12:24.416Z,24.67
2022-11-17T16:14:54.606Z,24.75
2022-11-17T16:17:22.394Z,27.60
2022-11-17T16:19:49.822Z,21.17
2022-11-17T16:22:19.943Z,35.38
2022-11-17T16:24:49.641Z,21.63
2022-11-17T16:27:19.632Z,22.00
2022-11-17T16:29:47.011Z,27.27
2022-11-17T16:32:14.676Z,20.73
2022-11-17T16:34:43.691Z,25.27
2022-11-17T16:37:11.275Z,43.13
2022-11-17T16:39:39.853Z,49.90
2022-11-17T16:42:07.524Z,27.17
2022-11-17T16:44:34.922Z,24.13
2022-11-17T16:47:04.682Z,20.13
2022-11-17T16:49:32.984Z,25.70
2022-11-17T16:52:00.619Z,17.73
2022-11-17T16:54:28.163Z,17.85
2022-11-17T16:56:55.833Z,20.67
2022-11-17T16:59:23.346Z,24.88
2022-11-17T17:01:51.039Z,24.65
2022-11-17T17:04:18.536Z,21.10
2022-11-17T17:06:46.402Z,21.83
2022-11-17T17:09:15.348Z,16.52
2022-11-17T17:11:43.431Z,14.18
2022-11-17T17:14:13.782Z,18.05
2022-11-17T17:16:42.033Z,20.20
2022-11-17T17:19:12.101Z,19.92
2022-11-17T17:21:41.686Z,15.85
2022-11-17T17:24:10.311Z,13.82
2022-11-17T17:26:39.340Z,12.95
2022-11-17T17:29:07.806Z,11.45
2022-11-17T17:31:38.146Z,18.60
2022-11-17T17:34:06.929Z,29.25
2022-11-17T17:36:38.666Z,19.88
2022-11-17T17:39:06.916Z,30.48
2022-11-17T17:41:39.036Z,23.02
2022-11-17T17:44:07.696Z,10.23
2022-11-17T17:46:38.996Z,14.25
2022-11-17T17:49:06.821Z,21.08
2022-11-17T17:51:40.255Z,13.88
2022-11-17T17:54:13.003Z,12.93
2022-11-17T17:56:40.626Z,13.82
2022-11-17T17:59:10.991Z,15.40
2022-11-17T18:01:40.894Z,18.45
2022-11-17T18:04:15.307Z,11.27
2022-11-17T18:06:47.262Z,14.65
2022-11-17T18:09:20.458Z,16.45
2022-11-17T18:11:53.999Z,24.63
2022-11-17T18:14:24.855Z,21.50
2022-11-17T18:16:53.680Z,24.17
2022-11-17T18:19:21.645Z,21.60
2022-11-17T18:21:49.362Z,23.63
2022-11-17T18:24:16.664Z,19.08
2022-11-17T18:26:44.318Z,17.63
2022-11-17T18:29:18.506Z,20.17
2022-11-17T18:31:49.892Z,21.65
2022-11-17T18:34:21.878Z,26.67
2022-11-17T18:36:51.723Z,18.67
2022-11-17T18:39:19.893Z,18.40
2022-11-17T18:41:49.222Z,26.45
2022-11-17T18:44:21.297Z,18.60
2022-11-17T18:46:49.738Z,17.08
2022-11-17T18:49:17.297Z,20.10
2022-11-17T18:51:46.020Z,24.17
2022-11-17T18:54:13.574Z,22.58
2022-11-17T18:56:42.646Z,16.45
2022-11-17T18:59:13.733Z,18.50
2022-11-17T19:01:43.345Z,15.95
2022-11-17T19:04:14.039Z,14.30
2022-11-17T19:06:42.263Z,14.38
2022-11-17T19:09:10.226Z,14.82
2022-11-17T19:11:38.406Z,15.63
2022-11-17T19:14:06.209Z,16.10
2022-11-17T19:16:44.553Z,19.25
2022-11-17T19:19:14.063Z,17.30
2022-11-17T19:21:42.939Z,16.17
2022-11-17T19:24:10.388Z,31.55
2022-11-17T19:26:38.077Z,24.58
2022-11-17T19:29:15.716Z,17.88
2022-11-17T19:31:45.849Z,20.35
2022-11-17T19:34:13.931Z,21.58
2022-11-17T19:36:41.763Z,19.42
2022-11-17T19:39:09.213Z,22.95
2022-11-17T19:41:38.789Z,34.30
2022-11-17T19:44:08.646Z,28.33
2022-11-17T19:46:37.359Z,38.53
2022-11-17T19:49:06.378Z,28.33
2022-11-17T19:51:39.237Z,20.73
2022-11-17T19:54:09.479Z,19.50
2022-11-17T19:56:38.624Z,27.38
2022-11-17T19:59:08.687Z,27.60
2022-11-17T20:01:40.370Z,38.15
2022-11-17T20:04:07.946Z,21.13
2022-11-17T20:06:39.492Z,17.55
2022-11-17T20:09:12.221Z,30.83
2022-11-17T20:11:40.888Z,19.58
2022-11-17T20:14:08.501Z,19.15
2022-11-17T20:16:39.003Z,19.25
2022-11-17T20:19:09.149Z,12.00
2022-11-17T20:21:37.026Z,17.92
2022-11-17T20:24:04.697Z,17.17
2022-11-17T20:26:34.451Z,23.10
2022-11-17T20:29:02.227Z,47.75
2022-11-17T20:31:33.322Z,28.52
2022-11-17T20:34:05.780Z,30.60
2022-11-17T20:36:34.967Z,28.73
2022-11-17T20:39:05.772Z,30.35
2022-11-17T20:41:33.675Z,24.48
2022-11-17T20:44:04.670Z,28.92
2022-11-17T20:46:32.749Z,43.75
2022-11-17T20:49:00.296Z,27.17
2022-11-17T20:51:28.230Z,20.98
2022-11-17T20:53:55.727Z,18.95
2022-11-17T20:56:23.867Z,21.05
2022-11-17T20:58:51.585Z,22.30
2022-11-17T21:01:21.594Z,24.60
2022-11-17T21:03:49.467Z,23.02
2022-11-17T21:06:19.146Z,22.30
2022-11-17T21:08:47.750Z,25.58
2022-11-17T21:11:37.169Z,23.90
2022-11-17T21:14:09.918Z,24.08
2022-11-17T21:16:40.110Z,18.15
2022-11-17T21:19:09.669Z,17.55
2022-11-17T21:21:37.687Z,19.60
2022-11-17T21:24:05.529Z,18.60
2022-11-17T21:26:33.913Z,15.98
2022-11-17T21:29:16.891Z,13.93
2022-11-17T21:31:45.178Z,17.75
2022-11-17T21:34:16.930Z,16.65
2022-11-17T21:36:44.978Z,16.48
2022-11-17T21:39:18.765Z,15.50
2022-11-17T21:41:46.858Z,17.92
2022-11-17T21:44:15.138Z,16.52
2022-11-17T21:46:44.033Z,15.68
2022-11-17T21:49:11.873Z,15.05
2022-11-17T21:51:39.641Z,12.43
2022-11-17T21:54:09.148Z,13.27
2022-11-17T21:56:37.936Z,16.80
2022-11-17T21:59:13.594Z,14.68
2022-11-17T22:01:41.501Z,14.95
2022-11-17T22:04:10.918Z,17.08
2022-11-17T22:06:39.222Z,15.98
2022-11-17T22:09:06.495Z,13.95
2022-11-17T22:11:37.620Z,14.75
2022-11-17T22:14:05.369Z,26.55
2022-11-17T22:16:33.486Z,19.42
2022-11-17T22:19:00.908Z,19.48
2022-11-17T22:21:29.187Z,18.20
2022-11-17T22:23:56.609Z,19.98
2022-11-17T22:26:24.310Z,18.98
2022-11-17T22:28:56.109Z,21.27
2022-11-17T22:31:24.298Z,21.45
2022-11-17T22:33:52.251Z,19.52
2022-11-17T22:36:20.949Z,19.88
2022-11-17T22:38:52.469Z,20.02
2022-11-17T22:41:22.109Z,24.85
2022-11-17T22:43:54.262Z,23.17
2022-11-17T22:46:25.629Z,22.75
2022-11-17T22:48:53.827Z,27.23
2022-11-17T22:51:40.742Z,25.63
2022-11-17T22:56:36.384Z,23.75
2022-11-17T22:59:04.071Z,23.83
2022-11-17T23:01:32.117Z,23.08
2022-11-17T23:03:59.641Z,23.40
2022-11-17T23:06:30.163Z,28.17
2022-11-17T23:08:58.446Z,39.53
2022-11-17T23:11:42.347Z,35.83
2022-11-17T23:14:12.364Z,42.63
2022-11-17T23:16:40.464Z,24.50
2022-11-17T23:19:09.707Z,21.08
2022-11-17T23:21:37.231Z,18.95
2022-11-17T23:24:04.966Z,23.27
2022-11-17T23:26:32.678Z,18.27
2022-11-17T23:28:59.897Z,23.95
2022-11-17T23:31:28.321Z,45.58
2022-11-17T23:33:55.557Z,29.40
2022-11-17T23:36:26.302Z,17.08
2022-11-17T23:38:57.868Z,18.90
2022-11-17T23:41:25.545Z,16.02
2022-11-17T23:43:54.370Z,24.60
2022-11-17T23:46:24.612Z,20.67
2022-11-17T23:48:52.179Z,14.38
2022-11-17T23:51:22.132Z,17.95
2022-11-17T23:53:52.619Z,16.58
2022-11-17T23:56:20.838Z,24.17
2022-11-17T23:58:51.837Z,17.63
